Flight Track Log - Related Links

Times and Time Zones

All times are in EDT time to prevent confusion due to time zone crossing. See the RPA3865 flight status page for this flight to view local times or setup timezone preferences in your user account.

Time Position Orientation Groundspeed Altitude Reporting Facility
EDT Latitude Longitude Course Direction KTS MPH feet Rate Location/Type
Fri 07:43:18 PM 44.0733 -103.1017 308° West 200 230 5,200  Level Denver Center
Fri 07:44:19 PM 44.0544 -103.1600 246° West 210 242 7,600 2,182 Climbing Denver Center
Fri 07:45:19 PM 43.9956 -103.1353 163° South 222 255 9,600 1,594 Climbing Denver Center
Fri 07:46:27 PM 43.9375 -103.1053 160° South 219 252 11,000 1,268 Climbing Denver Center
Fri 07:47:41 PM 43.8447 -103.0592 160° South 262 302 12,600 1,270 Climbing Denver Center
Fri 07:48:44 PM 43.7553 -103.0233 164° South 290 334 13,900 1,152 Climbing Denver Center
Fri 07:49:46 PM 43.6839 -103.0036 169° South 284 327 15,000 1,210 Climbing Denver Center
Fri 07:50:48 PM 43.6033 -102.9714 164° South 272 313 16,400 1,355 Climbing Denver Center
Fri 07:51:50 PM 43.5294 -102.9600 174° South 280 322 17,800 1,452 Climbing Denver Center
Fri 07:52:52 PM 43.4456 -102.9592 180° South 273 314 19,400 1,548 Climbing Denver Center
Fri 07:53:54 PM 43.3856 -102.9725 189° South 241 277 21,000 1,258 Climbing Denver Center
Fri 07:54:56 PM 43.3256 -102.9878 190° South 228 262 22,000 1,161 Climbing Denver Center
Fri 07:55:58 PM 43.2539 -103.0100 193° South 233 268 23,400 968 Climbing Denver Center
Fri 07:57:00 PM 43.1906 -103.0311 194° South 242 278 24,000 290 Climbing Denver Center
Fri 07:58:02 PM 43.1106 -103.0644 197° South 272 313 24,000  Level Denver Center
Fri 07:59:04 PM 43.0342 -103.0911 194° South 289 333 24,000  Level Denver Center
Fri 08:00:06 PM 42.9444 -103.1206 194° South 294 338 24,000  Level Denver Center
Fri 08:01:08 PM 42.8686 -103.1475 195° South 297 342 24,000  Level Denver Center
Fri 08:02:10 PM 42.7781 -103.1714 191° South 295 339 24,000  Level Denver Center
Fri 08:03:12 PM 42.6989 -103.1842 187° South 299 344 24,000  Level Denver Center
Fri 08:04:26 PM 42.6083 -103.2217 197° South 304 350 24,000  Level Denver Center
Fri 08:05:29 PM 42.5158 -103.2547 195° South 307 353 24,000  Level Denver Center
Fri 08:06:31 PM 42.4236 -103.2889 195° South 309 356 24,000  Level Denver Center
Fri 08:07:33 PM 42.3433 -103.3169 194° South 310 357 24,000  Level Denver Center
Fri 08:08:35 PM 42.2492 -103.3525 196° South 312 359 24,000  Level Denver Center
Fri 08:09:37 PM 42.1686 -103.3806 194° South 312 359 24,000  Level Denver Center
Fri 08:10:39 PM 42.0747 -103.4156 195° South 312 359 24,000  Level Denver Center
Fri 08:11:41 PM 41.9958 -103.4442 195° South 308 354 24,000  Level Denver Center
Fri 08:12:43 PM 41.9033 -103.4772 195° South 306 352 24,000  Level Denver Center
Fri 08:13:45 PM 41.8511 -103.5475 225° Southwest 289 333 24,000  Level Denver Center
Fri 08:14:47 PM 41.8167 -103.6650 249° West 300 345 24,000  Level Denver Center
Fri 08:15:49 PM 41.7750 -103.7578 239° Southwest 305 351 24,000  Level Denver Center
Fri 08:16:51 PM 41.7097 -103.8244 217° Southwest 307 353 24,000  Level Denver Center
Fri 08:17:53 PM 41.6319 -103.9039 217° Southwest 315 362 24,000  Level Denver Center
Fri 08:18:55 PM 41.5619 -103.9667 214° Southwest 317 365 24,000  Level Denver Center
Fri 08:19:58 PM 41.4939 -104.0558 224° Southwest 307 353 24,000  Level Denver Center
Fri 08:20:59 PM 41.4478 -104.1456 236° Southwest 306 352 24,000  Level Denver Center
Fri 08:22:01 PM 41.3556 -104.1872 199° South 321 369 24,000 -726 Level Denver Center
Fri 08:23:03 PM 41.2697 -104.1992 186° South 325 374 22,500 -2,081 Descending Denver Center
Fri 08:24:05 PM 41.1731 -104.2375 197° South 324 373 19,700 -2,177 Descending Denver Center
Fri 08:25:07 PM 41.0922 -104.2792 201° Southwest 324 373 18,000 -1,680 Descending Denver Center
Fri 08:26:10 PM 40.9936 -104.3228 198° South 335 386 16,200 -1,488 Descending Denver Center
Fri 08:27:12 PM 40.9153 -104.3631 201° Southwest 346 398 14,900 -1,306 Descending Denver Center
Fri 08:28:14 PM 40.8114 -104.4111 199° South 334 384 13,500 -919 Descending Denver Center
Fri 08:29:16 PM 40.7225 -104.4122 181° South 340 391 13,000 -484 Descending Denver Center
Fri 08:30:18 PM 40.6233 -104.3964 173° South 335 386 12,500 -774 Descending Denver Center
Fri 08:31:20 PM 40.5322 -104.3844 174° South 329 379 11,400 -732 Descending Denver Center
Fri 08:32:21 PM 40.4347 -104.3728 175° South 326 375 11,000 -537 Descending Denver Center
Fri 08:33:23 PM 40.3464 -104.3619 175° South 320 368 10,300 -919 Descending Denver Center
Fri 08:34:25 PM 40.2614 -104.3550 176° South 280 322 9,100 -629 Descending Denver Center
Fri 08:35:27 PM 40.1900 -104.3483 176° South 260 299 9,000 -48 Descending Denver Center
Fri 08:36:29 PM 40.1156 -104.3439 177° South 267 307 9,000 -387 Level Denver Center
Fri 08:37:31 PM 40.0358 -104.3428 179° South 265 305 8,200 -484 Descending Denver Center
Fri 08:38:33 PM 39.9844 -104.3414 179° South 248 285 8,000 -435 Descending Denver Center
Fri 08:39:35 PM 39.9181 -104.3883 208° Southwest 238 274 7,300 -484 Descending Denver Center
Fri 08:40:37 PM 39.8822 -104.4544 235° Southwest 228 262 7,000 -242 Descending Denver Center
Fri 08:41:39 PM 39.8739 -104.5297 262° West 215 247 6,800 -581 Descending Denver Center
Fri 08:42:41 PM 39.8764 -104.5878 273° West 150 173 5,800 -677 Descending Denver Center
Fri 08:43:43 PM 39.8775 -104.6378 272° West 140 161 5,400 -387 Descending Denver Center
Fri 08:45:00 PM 39.8500 -104.6667 264° West  Level FlightAware Approximate
Fri 08:52:00 PM 39.8617 -104.6732 264° West  Level Estimated
Fri 08:53:00 PM 39.8617 -104.6732 264° West  Level Estimated
Fri 08:54:00 PM 39.8617 -104.6732 264° West  Level Estimated

Login

Don't have an account? Register now (free) for customized features, flight alerts, and more!